Time;durP1;ratioP1;P1;durP2;ratioP2;P2;SDS_P1;SDS_P2;PMS_P1;PMS_P2;Temp;Humidity;BMP_temperature;BMP_pressure;BME280_temperature;BME280_humidity;BME280_pressure;Samples;Min_cycle;Max_cycle;Signal;HPM_P1;HPM_P2
2023/07/10 00:00:59;;;;;;;1999.90;999.90;;;19.60;99.90;;;;;;5136829;27;20115;-77
2023/07/10 00:03:28;;;;;;;1999.90;999.90;;;19.60;99.90;;;;;;5136733;27;20046;-77
2023/07/10 00:05:53;;;;;;;1999.90;999.90;;;19.60;99.90;;;;;;5155061;27;20046;-76
2023/07/10 00:08:19;;;;;;;1999.90;999.90;;;19.60;99.90;;;;;;5155582;27;20413;-76
2023/07/10 00:10:45;;;;;;;1999.90;999.90;;;19.60;99.90;;;;;;5141749;27;20047;-77
2023/07/10 00:13:12;;;;;;;1999.90;999.90;;;19.50;99.90;;;;;;5159099;27;20103;-77
2023/07/10 00:15:39;;;;;;;1999.90;999.90;;;19.50;99.90;;;;;;5159090;27;20054;-77
2023/07/10 00:18:16;;;;;;;1999.90;999.90;;;19.50;99.90;;;;;;5158960;27;20047;-77
2023/07/10 00:20:45;;;;;;;1999.90;999.90;;;19.50;99.90;;;;;;5159000;27;20470;-76
2023/07/10 00:23:11;;;;;;;1999.90;999.90;;;19.50;99.90;;;;;;5158974;27;20367;-76
2023/07/10 00:25:37;;;;;;;1999.90;999.90;;;19.50;99.90;;;;;;5159079;27;20047;-78
2023/07/10 00:28:12;;;;;;;1999.90;999.90;;;19.50;99.90;;;;;;5158942;27;20526;-77
2023/07/10 00:30:38;;;;;;;1999.90;999.90;;;19.50;99.90;;;;;;5158772;27;20051;-77
2023/07/10 00:33:09;;;;;;;1999.90;999.90;;;19.50;99.90;;;;;;5158677;27;20038;-77
2023/07/10 00:35:34;;;;;;;1999.90;999.90;;;19.50;99.90;;;;;;5158567;27;20055;-76
2023/07/10 00:38:11;;;;;;;1999.90;999.90;;;19.50;99.90;;;;;;5158720;27;20053;-77
2023/07/10 00:40:37;;;;;;;1999.90;999.90;;;19.40;99.90;;;;;;5158628;27;20039;-77
2023/07/10 00:43:13;;;;;;;1999.90;999.90;;;19.50;99.90;;;;;;5140352;27;20046;-75
2023/07/10 00:45:38;;;;;;;1999.90;999.90;;;19.50;99.90;;;;;;5158473;27;20045;-77
2023/07/10 00:48:22;;;;;;;1999.90;999.90;;;19.40;99.90;;;;;;5158729;27;20126;-78
2023/07/10 00:50:50;;;;;;;1999.90;999.90;;;19.50;99.90;;;;;;5139898;27;20086;-78
2023/07/10 00:53:32;;;;;;;1999.90;999.90;;;19.50;99.90;;;;;;5158314;27;20054;-76
2023/07/10 00:56:02;;;;;;;1999.90;999.90;;;19.40;99.90;;;;;;5140746;27;20043;-77
2023/07/10 00:58:42;;;;;;;1999.90;999.90;;;19.40;99.90;;;;;;5158227;27;20050;-76
2023/07/10 01:01:14;;;;;;;1999.90;999.90;;;19.30;99.90;;;;;;5158198;27;20046;-76
2023/07/10 01:03:41;;;;;;;1999.90;999.90;;;19.30;99.90;;;;;;5158471;27;20043;-77
2023/07/10 01:06:15;;;;;;;1999.90;999.90;;;19.30;99.90;;;;;;5139833;27;20074;-77
2023/07/10 01:08:46;;;;;;;1999.90;999.90;;;19.30;99.90;;;;;;5158530;27;20050;-76
2023/07/10 01:11:11;;;;;;;1999.90;999.90;;;19.30;99.90;;;;;;5158257;27;20407;-76
2023/07/10 01:13:41;;;;;;;1999.90;999.90;;;19.30;99.90;;;;;;5139519;27;20054;-76
2023/07/10 01:16:08;;;;;;;1999.90;999.90;;;19.30;99.90;;;;;;5157863;27;20039;-76
2023/07/10 01:18:35;;;;;;;1999.90;999.90;;;19.20;99.90;;;;;;5139588;27;20054;-77
2023/07/10 01:21:19;;;;;;;1999.90;999.90;;;19.20;99.90;;;;;;5139194;27;20431;-76
2023/07/10 01:23:45;;;;;;;1999.90;999.90;;;19.20;99.90;;;;;;5157740;27;20047;-76
2023/07/10 01:26:11;;;;;;;1999.90;999.90;;;19.30;99.90;;;;;;5139267;27;20047;-77
2023/07/10 01:28:37;;;;;;;1999.90;999.90;;;19.30;99.90;;;;;;5139516;27;20553;-76
2023/07/10 01:31:08;;;;;;;1999.90;999.90;;;19.30;99.90;;;;;;5139848;27;20134;-75
2023/07/10 01:33:39;;;;;;;1999.90;999.90;;;19.30;99.90;;;;;;5139513;27;20086;-76
2023/07/10 01:36:06;;;;;;;1999.90;999.90;;;19.20;99.90;;;;;;5158137;27;20099;-76
2023/07/10 01:38:38;;;;;;;1999.90;999.90;;;19.20;99.90;;;;;;5157438;27;20107;-76
2023/07/10 01:41:38;;;;;;;1999.90;999.90;;;19.20;99.90;;;;;;5139358;27;20046;-75
2023/07/10 01:44:27;;;;;;;1999.90;999.90;;;19.20;99.90;;;;;;5154238;27;20085;-73
2023/07/10 01:46:55;;;;;;;1999.90;999.90;;;19.10;99.90;;;;;;5157395;27;20034;-76
2023/07/10 01:49:26;;;;;;;1999.90;999.90;;;19.10;99.90;;;;;;5157189;27;20047;-75
2023/07/10 01:51:54;;;;;;;1999.90;999.90;;;19.10;99.90;;;;;;5157139;27;20042;-78
2023/07/10 01:54:20;;;;;;;1999.90;999.90;;;19.00;99.90;;;;;;5138586;27;20375;-76
2023/07/10 01:56:47;;;;;;;1999.90;999.90;;;19.10;99.90;;;;;;5157067;27;20049;-76
2023/07/10 01:59:13;;;;;;;1999.90;999.90;;;19.00;99.90;;;;;;5157057;27;20056;-76
2023/07/10 02:01:39;;;;;;;1999.90;999.90;;;19.00;99.90;;;;;;5156980;27;20126;-76
2023/07/10 02:04:04;;;;;;;1999.90;999.90;;;19.00;99.90;;;;;;5138172;27;20135;-77
2023/07/10 02:06:33;;;;;;;1999.90;999.90;;;19.00;99.90;;;;;;5138683;27;20054;-76
2023/07/10 02:08:59;;;;;;;1999.90;999.90;;;19.00;99.90;;;;;;5156920;27;20072;-76
2023/07/10 02:11:25;;;;;;;1999.90;999.90;;;19.00;99.90;;;;;;5138464;27;20054;-74
2023/07/10 02:13:50;;;;;;;1999.90;999.90;;;19.00;99.90;;;;;;5157335;27;20051;-76
2023/07/10 02:16:16;;;;;;;1999.90;999.90;;;19.00;99.90;;;;;;5156812;27;20037;-76
2023/07/10 02:18:42;;;;;;;1999.90;999.90;;;19.00;99.90;;;;;;5157192;27;20088;-76
2023/07/10 02:21:08;;;;;;;1999.90;999.90;;;18.90;99.90;;;;;;5138256;27;20107;-76
2023/07/10 02:23:35;;;;;;;1999.90;999.90;;;18.90;99.90;;;;;;5157106;27;20126;-76
2023/07/10 02:26:01;;;;;;;1999.90;999.90;;;18.90;99.90;;;;;;5138184;27;20047;-77
2023/07/10 02:28:27;;;;;;;1999.90;999.90;;;18.90;99.90;;;;;;5156534;27;20055;-77
2023/07/10 02:30:53;;;;;;;1999.90;999.90;;;18.90;99.90;;;;;;5156445;27;20375;-77
2023/07/10 02:33:19;;;;;;;1999.90;999.90;;;18.90;99.90;;;;;;5155441;27;20095;-77
2023/07/10 02:35:48;;;;;;;1999.90;999.90;;;18.90;99.90;;;;;;5156063;27;20380;-77
2023/07/10 02:38:14;;;;;;;1999.90;999.90;;;18.90;99.90;;;;;;5138711;27;20358;-77
2023/07/10 02:40:42;;;;;;;1999.90;999.90;;;19.00;99.90;;;;;;5156262;27;20087;-77
2023/07/10 02:43:08;;;;;;;1999.90;999.90;;;19.00;99.90;;;;;;5156199;27;20042;-77
2023/07/10 02:45:35;;;;;;;1999.90;999.90;;;18.90;99.90;;;;;;5156208;27;20046;-77
2023/07/10 02:48:00;;;;;;;1999.90;999.90;;;18.90;99.90;;;;;;5156146;27;20093;-77
2023/07/10 02:50:26;;;;;;;1999.90;999.90;;;18.90;99.90;;;;;;5156076;27;20043;-77
2023/07/10 02:52:52;;;;;;;1999.90;999.90;;;18.90;99.90;;;;;;5155981;27;20050;-76
2023/07/10 02:55:18;;;;;;;1999.90;999.90;;;18.90;99.90;;;;;;5137492;27;20125;-75
2023/07/10 02:57:44;;;;;;;1999.90;999.90;;;18.90;99.90;;;;;;5138116;27;20073;-76
2023/07/10 03:00:10;;;;;;;1999.90;999.90;;;18.90;99.90;;;;;;5155786;27;20054;-77
2023/07/10 03:02:36;;;;;;;1999.90;999.90;;;18.90;99.90;;;;;;5155863;27;20172;-76
2023/07/10 03:05:02;;;;;;;1999.90;999.90;;;18.80;99.90;;;;;;5155457;27;20126;-77
2023/07/10 03:07:28;;;;;;;1999.90;999.90;;;18.80;99.90;;;;;;5136943;27;20485;-76
2023/07/10 03:09:54;;;;;;;1999.90;999.90;;;18.80;99.90;;;;;;5155751;27;20053;-76
2023/07/10 03:12:21;;;;;;;1999.90;999.90;;;18.80;99.90;;;;;;5156058;27;20034;-76
2023/07/10 03:14:48;;;;;;;1999.90;999.90;;;18.90;99.90;;;;;;5155658;27;20039;-75
2023/07/10 03:17:14;;;;;;;1999.90;999.90;;;18.90;99.90;;;;;;5155641;27;20382;-76
2023/07/10 03:19:39;;;;;;;1999.90;999.90;;;18.90;99.90;;;;;;5137364;27;20046;-76
2023/07/10 03:22:05;;;;;;;1999.90;999.90;;;18.90;99.90;;;;;;5155446;27;20145;-76
2023/07/10 03:24:31;;;;;;;1999.90;999.90;;;18.80;99.90;;;;;;5137066;27;20114;-77
2023/07/10 03:26:57;;;;;;;1999.90;999.90;;;18.80;99.90;;;;;;5155480;27;20035;-77
2023/07/10 03:29:23;;;;;;;1999.90;999.90;;;18.70;99.90;;;;;;5137199;27;20039;-76
2023/07/10 03:31:49;;;;;;;1999.90;999.90;;;18.80;99.90;;;;;;5155289;27;20035;-77
2023/07/10 03:34:14;;;;;;;1999.90;999.90;;;18.80;99.90;;;;;;5155147;27;20055;-77
2023/07/10 03:36:41;;;;;;;1999.90;999.90;;;18.80;99.90;;;;;;5155361;27;20050;-77
2023/07/10 03:39:07;;;;;;;1999.90;999.90;;;18.80;99.90;;;;;;5155439;27;20043;-77
2023/07/10 03:41:34;;;;;;;1999.90;999.90;;;18.80;99.90;;;;;;5137015;27;20121;-77
2023/07/10 03:44:00;;;;;;;1999.90;999.90;;;18.80;99.90;;;;;;5154921;27;20383;-77
2023/07/10 03:46:26;;;;;;;1999.90;999.90;;;18.80;99.90;;;;;;5136950;27;20042;-76
2023/07/10 03:48:51;;;;;;;1999.90;999.90;;;18.80;99.90;;;;;;5155405;27;20083;-77
2023/07/10 03:51:18;;;;;;;1999.90;999.90;;;18.80;99.90;;;;;;5136978;27;20082;-76
2023/07/10 03:53:45;;;;;;;1999.90;999.90;;;18.80;99.90;;;;;;5155265;27;20046;-77
2023/07/10 03:56:11;;;;;;;1999.90;999.90;;;18.70;99.90;;;;;;5155162;27;20126;-76
2023/07/10 03:58:40;;;;;;;1999.90;999.90;;;18.70;99.90;;;;;;5137787;27;20125;-76
2023/07/10 04:01:07;;;;;;;1999.90;999.90;;;18.70;99.90;;;;;;5155397;27;20062;-76
2023/07/10 04:03:34;;;;;;;1999.90;999.90;;;18.70;99.90;;;;;;5155122;27;20114;-76
2023/07/10 04:06:01;;;;;;;1999.90;999.90;;;18.70;99.90;;;;;;5155073;27;20046;-77
2023/07/10 04:08:35;;;;;;;1999.90;999.90;;;18.70;99.90;;;;;;5137156;27;20062;-76
2023/07/10 04:11:19;;;;;;;1999.90;999.90;;;18.70;99.90;;;;;;5155857;27;20129;-76
2023/07/10 04:13:46;;;;;;;1999.90;999.90;;;18.70;99.90;;;;;;5154954;27;20065;-77
2023/07/10 04:16:15;;;;;;;1999.90;999.90;;;18.70;99.90;;;;;;5136349;27;20054;-75
2023/07/10 04:18:42;;;;;;;1999.90;999.90;;;18.70;99.90;;;;;;5136573;27;20046;-76
2023/07/10 04:21:26;;;;;;;1999.90;999.90;;;18.70;99.90;;;;;;5155037;27;20046;-77
2023/07/10 04:23:53;;;;;;;1999.90;999.90;;;18.60;99.90;;;;;;5155835;27;20042;-77
2023/07/10 04:26:30;;;;;;;1999.90;999.90;;;18.60;99.90;;;;;;5155199;27;20046;-76
2023/07/10 04:28:58;;;;;;;1999.90;999.90;;;18.70;99.90;;;;;;5119812;27;20090;-76
2023/07/10 04:31:24;;;;;;;1999.90;999.90;;;18.60;99.90;;;;;;5136334;27;20042;-77
2023/07/10 04:33:51;;;;;;;1999.90;999.90;;;18.70;99.90;;;;;;5155040;27;20039;-78
2023/07/10 04:36:17;;;;;;;1999.90;999.90;;;18.70;99.90;;;;;;5154895;27;20119;-77
2023/07/10 04:38:43;;;;;;;1999.90;999.90;;;18.70;99.90;;;;;;5154842;27;20154;-77
2023/07/10 04:41:12;;;;;;;1999.90;999.90;;;18.70;99.90;;;;;;5154845;27;20038;-76
2023/07/10 04:43:38;;;;;;;1999.90;999.90;;;18.70;99.90;;;;;;5156254;27;20466;-76
2023/07/10 04:46:07;;;;;;;1999.90;999.90;;;18.70;99.90;;;;;;5159057;27;20064;-77
2023/07/10 04:48:33;;;;;;;1999.90;999.90;;;18.70;99.90;;;;;;5162625;27;20394;-73
2023/07/10 04:51:03;;;;;;;1999.90;999.90;;;18.70;99.90;;;;;;5143929;27;20050;-73
2023/07/10 04:53:30;;;;;;;1999.90;999.90;;;18.70;99.90;;;;;;5141060;27;20047;-72
2023/07/10 04:55:56;;;;;;;1999.90;999.90;;;18.70;99.90;;;;;;5156763;27;20129;-72
2023/07/10 04:58:24;;;;;;;1999.90;999.90;;;18.80;99.90;;;;;;5158347;27;20039;-73
2023/07/10 05:00:57;;;;;;;1999.90;999.90;;;18.70;99.90;;;;;;5158949;27;20046;-72
2023/07/10 05:03:23;;;;;;;1999.90;999.90;;;18.70;99.90;;;;;;5158550;27;20039;-72
2023/07/10 05:05:57;;;;;;;1999.90;999.90;;;18.70;99.90;;;;;;5158666;27;20047;-73
2023/07/10 05:08:24;;;;;;;1999.90;999.90;;;18.80;99.90;;;;;;5158070;27;20053;-73
2023/07/10 05:10:50;;;;;;;1999.90;999.90;;;18.80;99.90;;;;;;5140652;27;20042;-72
2023/07/10 05:13:27;;;;;;;1999.90;999.90;;;18.80;99.90;;;;;;5157824;27;20068;-72
2023/07/10 05:15:57;;;;;;;1999.90;999.90;;;18.80;99.90;;;;;;5158810;27;20382;-72
2023/07/10 05:18:25;;;;;;;1999.90;999.90;;;18.80;99.90;;;;;;5157922;27;20406;-72
2023/07/10 05:20:52;;;;;;;1999.90;999.90;;;18.80;99.90;;;;;;5157779;27;20379;-70
2023/07/10 05:23:19;;;;;;;1999.90;999.90;;;18.70;99.90;;;;;;5157780;27;20118;-71
2023/07/10 05:26:09;;;;;;;1999.90;999.90;;;18.80;99.90;;;;;;5158233;27;20134;-71
2023/07/10 05:28:37;;;;;;;1999.90;999.90;;;18.80;99.90;;;;;;5140271;27;20055;-71
2023/07/10 05:31:03;;;;;;;1999.90;999.90;;;18.80;99.90;;;;;;5157547;27;20129;-71
2023/07/10 05:33:30;;;;;;;1999.90;999.90;;;18.70;99.90;;;;;;5158076;27;20043;-71
2023/07/10 05:36:01;;;;;;;1999.90;999.90;;;18.70;99.90;;;;;;5157633;27;20058;-71
2023/07/10 05:38:29;;;;;;;1999.90;999.90;;;18.70;99.90;;;;;;5122384;27;20048;-70
2023/07/10 05:40:55;;;;;;;1999.90;999.90;;;18.70;99.90;;;;;;5139100;27;20142;-72
2023/07/10 05:43:21;;;;;;;1999.90;999.90;;;18.70;99.90;;;;;;5157369;27;20125;-71
2023/07/10 05:45:48;;;;;;;1999.90;999.90;;;18.70;99.90;;;;;;5157367;27;20043;-71
2023/07/10 05:48:15;;;;;;;1999.90;999.90;;;18.70;99.90;;;;;;5157302;27;20043;-71
2023/07/10 05:50:43;;;;;;;1999.90;999.90;;;18.70;99.90;;;;;;5157378;27;20093;-71
2023/07/10 05:53:09;;;;;;;1999.90;999.90;;;18.80;99.90;;;;;;5157293;27;20082;-70
2023/07/10 05:55:34;;;;;;;1999.90;999.90;;;18.70;99.90;;;;;;5139672;27;20054;-69
2023/07/10 05:58:00;;;;;;;1999.90;999.90;;;18.70;99.90;;;;;;5157646;27;20038;-70
2023/07/10 06:00:26;;;;;;;1999.90;999.90;;;18.70;99.90;;;;;;5156969;27;20487;-71
2023/07/10 06:02:52;;;;;;;1999.90;999.90;;;18.70;99.90;;;;;;5157765;27;20121;-71
2023/07/10 06:05:18;;;;;;;1999.90;999.90;;;18.70;99.90;;;;;;5156959;27;20050;-69
2023/07/10 06:07:43;;;;;;;1999.90;999.90;;;18.70;99.90;;;;;;5157056;27;20492;-70
2023/07/10 06:10:09;;;;;;;1999.90;999.90;;;18.70;99.90;;;;;;5138451;27;20043;-71
2023/07/10 06:12:35;;;;;;;1999.90;999.90;;;18.80;99.90;;;;;;5157330;27;20050;-71
2023/07/10 06:15:01;;;;;;;1999.90;999.90;;;18.80;99.90;;;;;;5156723;27;20064;-70
2023/07/10 06:17:26;;;;;;;1999.90;999.90;;;18.80;99.90;;;;;;5156722;27;20046;-70
2023/07/10 06:19:52;;;;;;;1999.90;999.90;;;18.80;99.90;;;;;;5156672;27;20046;-71
2023/07/10 06:22:18;;;;;;;1999.90;999.90;;;18.90;99.90;;;;;;5138304;27;20082;-71
2023/07/10 06:24:44;;;;;;;1999.90;999.90;;;18.90;99.90;;;;;;5156550;27;20050;-70
2023/07/10 06:27:10;;;;;;;1999.90;999.90;;;18.90;99.90;;;;;;5156731;27;20042;-70
2023/07/10 06:29:36;;;;;;;1999.90;999.90;;;18.90;99.90;;;;;;5156420;27;20524;-70
2023/07/10 06:32:03;;;;;;;1999.90;999.90;;;18.90;99.90;;;;;;5156341;27;20187;-70
2023/07/10 06:34:29;;;;;;;1999.90;999.90;;;18.90;99.90;;;;;;5155981;27;20058;-70
2023/07/10 06:36:55;;;;;;;1999.90;999.90;;;18.90;99.90;;;;;;5155932;27;20406;-70
2023/07/10 06:39:21;;;;;;;1999.90;999.90;;;18.90;99.90;;;;;;5137895;27;20055;-70
2023/07/10 06:41:46;;;;;;;1999.90;999.90;;;18.90;99.90;;;;;;5156725;27;20063;-70
2023/07/10 06:44:12;;;;;;;1999.90;999.90;;;18.90;99.90;;;;;;5156249;27;20045;-70
2023/07/10 06:46:38;;;;;;;1999.90;999.90;;;19.00;99.90;;;;;;5156079;27;20192;-69
2023/07/10 06:49:04;;;;;;;1999.90;999.90;;;19.00;99.90;;;;;;5156081;27;20050;-70
2023/07/10 06:51:29;;;;;;;1999.90;999.90;;;19.00;99.90;;;;;;5156261;27;20043;-69
2023/07/10 06:53:55;;;;;;;1999.90;999.90;;;19.00;99.90;;;;;;5138166;27;20054;-70
2023/07/10 06:56:21;;;;;;;1999.90;999.90;;;19.00;99.90;;;;;;5155986;27;20099;-69
2023/07/10 06:58:47;;;;;;;1999.90;999.90;;;19.10;99.90;;;;;;5156876;27;20110;-70
2023/07/10 07:01:12;;;;;;;1999.90;999.90;;;19.10;99.90;;;;;;5155956;27;20541;-69
2023/07/10 07:03:40;;;;;;;1999.90;999.90;;;19.20;99.90;;;;;;5155786;27;20501;-70
2023/07/10 07:06:07;;;;;;;1999.90;999.90;;;19.20;99.90;;;;;;5156265;27;20054;-67
2023/07/10 07:08:33;;;;;;;1999.90;999.90;;;19.20;99.90;;;;;;5155714;27;20077;-68
2023/07/10 07:10:59;;;;;;;1999.90;999.90;;;19.30;99.90;;;;;;5155631;27;20046;-68
2023/07/10 07:13:25;;;;;;;1999.90;999.90;;;19.30;99.90;;;;;;5156066;27;20099;-69
2023/07/10 07:15:54;;;;;;;1999.90;999.90;;;19.30;99.90;;;;;;5155600;27;20371;-68
2023/07/10 07:18:21;;;;;;;1999.90;999.90;;;19.30;99.90;;;;;;5137045;27;20057;-68
2023/07/10 07:20:47;;;;;;;1999.90;999.90;;;19.30;99.90;;;;;;5155494;27;20042;-67
2023/07/10 07:23:13;;;;;;;1999.90;999.90;;;19.30;99.90;;;;;;5155466;27;20125;-67
2023/07/10 07:25:41;;;;;;;1999.90;999.90;;;19.40;99.90;;;;;;5136702;27;20130;-68
2023/07/10 07:28:08;;;;;;;1999.90;999.90;;;19.40;99.90;;;;;;5156187;27;20099;-68
2023/07/10 07:30:33;;;;;;;1999.90;999.90;;;19.40;99.90;;;;;;5154820;27;20042;-68
2023/07/10 07:33:00;;;;;;;1999.90;999.90;;;19.40;99.90;;;;;;5155230;27;20130;-68
2023/07/10 07:35:27;;;;;;;1999.90;999.90;;;19.40;99.90;;;;;;5155579;27;20473;-67
2023/07/10 07:37:52;;;;;;;1999.90;999.90;;;19.40;99.90;;;;;;5156053;27;20046;-68
2023/07/10 07:40:19;;;;;;;1999.90;999.90;;;19.50;99.90;;;;;;5155368;27;20478;-68
2023/07/10 07:42:46;;;;;;;1999.90;999.90;;;19.50;99.90;;;;;;5155911;27;20432;-69
2023/07/10 07:45:12;;;;;;;1999.90;999.90;;;19.50;99.90;;;;;;5155385;27;20486;-69
2023/07/10 07:47:40;;;;;;;1999.90;999.90;;;19.60;99.90;;;;;;5155957;27;20164;-69
2023/07/10 07:50:07;;;;;;;1999.90;999.90;;;19.60;99.90;;;;;;5155358;27;20050;-69
2023/07/10 07:52:33;;;;;;;1999.90;999.90;;;19.70;99.90;;;;;;5155248;27;20038;-68
2023/07/10 07:54:59;;;;;;;1999.90;999.90;;;19.70;99.90;;;;;;5155238;27;20050;-68
2023/07/10 07:57:25;;;;;;;1999.90;999.90;;;19.70;99.90;;;;;;5155191;27;20180;-68
2023/07/10 07:59:52;;;;;;;1999.90;999.90;;;19.70;99.90;;;;;;5155974;27;20038;-68
2023/07/10 08:02:18;;;;;;;1999.90;999.90;;;19.80;99.90;;;;;;5155993;27;20042;-68
2023/07/10 08:04:43;;;;;;;1999.90;999.90;;;19.80;99.90;;;;;;5155966;27;20343;-68
2023/07/10 08:07:09;;;;;;;1999.90;999.90;;;19.90;99.90;;;;;;5136902;27;20553;-68
2023/07/10 08:09:35;;;;;;;1999.90;999.90;;;19.90;99.90;;;;;;5155164;27;20046;-68
2023/07/10 08:12:01;;;;;;;1999.90;999.90;;;19.90;99.90;;;;;;5155036;27;20126;-67
2023/07/10 08:14:28;;;;;;;1999.90;999.90;;;19.90;99.90;;;;;;5155083;27;20133;-67
2023/07/10 08:16:54;;;;;;;1999.90;999.90;;;20.00;99.90;;;;;;5136600;27;20050;-66
2023/07/10 08:19:20;;;;;;;1999.90;999.90;;;20.00;99.90;;;;;;5155012;27;20551;-68
2023/07/10 08:21:47;;;;;;;1999.90;999.90;;;20.00;99.90;;;;;;5119606;27;20050;-66
2023/07/10 08:24:12;;;;;;;1999.90;999.90;;;20.00;99.90;;;;;;5154914;27;20046;-65
2023/07/10 08:26:38;;;;;;;1999.90;999.90;;;20.10;99.90;;;;;;5136746;27;20103;-65
2023/07/10 08:29:30;;;;;;;1999.90;999.90;;;20.10;99.90;;;;;;5154886;27;20046;-66
2023/07/10 08:31:57;;;;;;;1999.90;999.90;;;20.20;99.90;;;;;;5139757;27;20043;-65
2023/07/10 08:34:26;;;;;;;1999.90;999.90;;;20.20;99.90;;;;;;5158575;27;20054;-65
2023/07/10 08:36:52;;;;;;;1999.90;999.90;;;20.30;99.90;;;;;;5158434;27;20490;-65
2023/07/10 08:39:20;;;;;;;1999.90;999.90;;;20.30;99.90;;;;;;5158695;27;20050;-65
2023/07/10 08:41:54;;;;;;;1999.90;999.90;;;20.40;99.90;;;;;;5140480;27;20042;-65
2023/07/10 08:44:28;;;;;;;1999.90;999.90;;;20.40;99.90;;;;;;5158677;27;20152;-65
2023/07/10 08:46:55;;;;;;;1999.90;999.90;;;20.50;99.90;;;;;;5158632;27;20577;-65
2023/07/10 08:49:34;;;;;;;1999.90;999.90;;;20.60;99.90;;;;;;5140413;27;20047;-65
2023/07/10 08:52:12;;;;;;;1999.90;999.90;;;20.70;99.90;;;;;;5140455;27;20555;-65
2023/07/10 08:54:38;;;;;;;1999.90;999.90;;;20.80;99.90;;;;;;5158226;27;20545;-65
2023/07/10 08:57:19;;;;;;;1999.90;999.90;;;20.80;99.90;;;;;;5158298;27;20129;-65
2023/07/10 09:00:02;;;;;;;1999.90;999.90;;;20.80;99.90;;;;;;5158091;27;20046;-66
2023/07/10 09:02:42;;;;;;;1999.90;999.90;;;20.90;99.90;;;;;;5158306;27;20167;-66
2023/07/10 09:05:13;;;;;;;1999.90;999.90;;;21.00;99.90;;;;;;5158269;27;20394;-66
2023/07/10 09:07:43;;;;;;;1999.90;999.90;;;21.00;99.90;;;;;;5158226;27;20125;-65
2023/07/10 09:10:30;;;;;;;1999.90;999.90;;;21.10;99.90;;;;;;5158130;27;20184;-65
2023/07/10 09:12:59;;;;;;;1999.90;999.90;;;21.20;99.90;;;;;;5139603;27;20500;-65
2023/07/10 09:15:32;;;;;;;1999.90;999.90;;;21.20;99.90;;;;;;5158055;27;20089;-66
2023/07/10 09:18:37;;;;;;;1999.90;999.90;;;21.20;99.90;;;;;;5158676;27;20079;-65
2023/07/10 09:21:20;;;;;;;1999.90;999.90;;;21.20;99.90;;;;;;5157273;27;20398;-66
2023/07/10 09:23:47;;;;;;;1999.90;999.90;;;21.30;99.90;;;;;;5158495;27;20049;-65
2023/07/10 09:26:18;;;;;;;1999.90;999.90;;;21.30;99.90;;;;;;5139493;27;20225;-65
2023/07/10 09:29:10;;;;;;;1999.90;999.90;;;21.40;99.90;;;;;;5158665;27;20105;-65
2023/07/10 09:31:44;;;;;;;1999.90;999.90;;;21.40;99.90;;;;;;5142804;27;20088;-65
2023/07/10 09:34:11;;;;;;;1999.90;999.90;;;21.50;99.90;;;;;;5157574;27;20062;-65
2023/07/10 09:36:37;;;;;;;1999.90;999.90;;;21.60;99.90;;;;;;5157690;27;20047;-64
2023/07/10 09:39:03;;;;;;;1999.90;999.90;;;21.60;99.90;;;;;;5157487;27;20039;-65
2023/07/10 09:41:29;;;;;;;1999.90;999.90;;;21.60;99.90;;;;;;5156977;27;20070;-65
2023/07/10 09:43:58;;;;;;;1999.90;999.90;;;21.60;99.90;;;;;;5157123;27;20182;-65
2023/07/10 09:46:30;;;;;;;1999.90;999.90;;;21.70;99.90;;;;;;5138981;27;20389;-65
2023/07/10 09:48:59;;;;;;;1999.90;999.90;;;21.80;99.90;;;;;;5157504;27;20382;-65
2023/07/10 09:51:25;;;;;;;1999.90;999.90;;;21.90;99.90;;;;;;5157290;27;20134;-65
2023/07/10 09:53:53;;;;;;;1999.90;999.90;;;21.90;99.90;;;;;;5157136;27;20485;-64
2023/07/10 09:56:20;;;;;;;1999.90;999.90;;;22.00;99.90;;;;;;5156670;27;20103;-65
2023/07/10 09:58:46;;;;;;;1999.90;999.90;;;22.00;99.90;;;;;;5156743;27;20050;-65
2023/07/10 10:01:12;;;;;;;1999.90;999.90;;;22.10;99.90;;;;;;5157900;27;20051;-65
2023/07/10 10:03:41;;;;;;;1999.90;999.90;;;22.20;99.90;;;;;;5157649;27;20414;-65
2023/07/10 10:06:19;;;;;;;1999.90;999.90;;;22.30;99.90;;;;;;5157077;27;20038;-65
2023/07/10 10:08:46;;;;;;;1999.90;999.90;;;22.40;99.90;;;;;;5157008;27;20103;-65
2023/07/10 10:11:12;;;;;;;1999.90;999.90;;;22.40;99.90;;;;;;5156850;27;20057;-65
2023/07/10 10:14:09;;;;;;;1999.90;999.90;;;22.40;99.90;;;;;;5156371;27;20035;-64
2023/07/10 10:16:41;;;;;;;1999.90;999.90;;;22.50;99.90;;;;;;5155789;27;20053;-65
2023/07/10 10:19:21;;;;;;;1999.90;999.90;;;22.50;99.90;;;;;;5157046;27;20046;-64
2023/07/10 10:21:47;;;;;;;1999.90;999.90;;;22.50;99.90;;;;;;5157262;27;20087;-65
2023/07/10 10:24:13;;;;;;;1999.90;999.90;;;22.60;99.90;;;;;;5157114;27;20137;-64
2023/07/10 10:27:13;;;;;;;1999.90;999.90;;;22.50;99.90;;;;;;5157265;27;20046;-64
2023/07/10 10:30:06;;;;;;;1999.90;999.90;;;22.50;99.90;;;;;;5156382;27;20038;-65
2023/07/10 10:32:48;;;;;;;1999.90;999.90;;;22.50;99.90;;;;;;5138330;27;20043;-65
2023/07/10 10:35:30;;;;;;;1999.90;999.90;;;22.60;99.90;;;;;;5156592;27;20055;-65
2023/07/10 10:38:23;;;;;;;1999.90;999.90;;;22.60;99.90;;;;;;5156975;27;20050;-65
2023/07/10 10:41:08;;;;;;;1999.90;999.90;;;22.60;99.90;;;;;;5157343;27;20042;-65
2023/07/10 10:43:34;;;;;;;1999.90;999.90;;;22.50;99.90;;;;;;5157301;27;20412;-65
2023/07/10 10:46:02;;;;;;;1999.90;999.90;;;22.50;99.90;;;;;;5156180;27;20047;-65
2023/07/10 10:48:32;;;;;;;1999.90;999.90;;;22.50;99.90;;;;;;5156065;27;20068;-65
2023/07/10 10:51:00;;;;;;;1999.90;999.90;;;22.60;99.90;;;;;;5155997;27;20535;-66
2023/07/10 10:53:41;;;;;;;1999.90;999.90;;;22.70;99.90;;;;;;5136621;27;20039;-65
2023/07/10 10:56:13;;;;;;;1999.90;999.90;;;22.80;99.90;;;;;;5156253;27;20046;-64
2023/07/10 10:59:32;;;;;;;1999.90;999.90;;;22.90;99.90;;;;;;5156123;27;20493;-66
2023/07/10 11:02:22;;;;;;;1999.90;999.90;;;22.90;99.90;;;;;;5156409;27;20084;-65
2023/07/10 11:05:03;;;;;;;1999.90;999.90;;;22.90;99.90;;;;;;5155956;27;20042;-65
2023/07/10 11:07:31;;;;;;;1999.90;999.90;;;22.80;99.90;;;;;;5155878;27;20042;-65
2023/07/10 11:10:04;;;;;;;1999.90;999.90;;;22.70;99.90;;;;;;5137550;27;20390;-65
2023/07/10 11:12:32;;;;;;;1999.90;999.90;;;22.60;99.90;;;;;;5137399;27;20057;-66
2023/07/10 11:15:19;;;;;;;1999.90;999.90;;;22.60;99.90;;;;;;5155670;27;20061;-65
2023/07/10 11:17:48;;;;;;;1999.90;999.90;;;22.70;99.90;;;;;;5137747;27;20047;-65
2023/07/10 11:20:16;;;;;;;1999.90;999.90;;;22.90;99.90;;;;;;5137673;27;20072;-65
2023/07/10 11:22:53;;;;;;;1999.90;999.90;;;23.00;99.90;;;;;;5155500;27;20121;-64
2023/07/10 11:25:57;;;;;;;1999.90;999.90;;;23.10;99.90;;;;;;5155838;27;20081;-64
2023/07/10 11:28:27;;;;;;;1999.90;999.90;;;23.20;99.90;;;;;;5142830;27;20051;-64
2023/07/10 11:31:16;;;;;;;1999.90;999.90;;;23.10;99.90;;;;;;5156180;27;20039;-64
2023/07/10 11:33:43;;;;;;;1999.90;999.90;;;23.00;99.90;;;;;;5114083;27;20047;-64
2023/07/10 11:36:15;;;;;;;1999.90;999.90;;;22.90;99.90;;;;;;5155247;27;20122;-64
2023/07/10 11:39:05;;;;;;;1999.90;999.90;;;22.90;99.90;;;;;;5155699;27;20433;-64
2023/07/10 11:41:43;;;;;;;1999.90;999.90;;;23.00;99.90;;;;;;5155277;27;20088;-64
2023/07/10 11:44:21;;;;;;;1999.90;999.90;;;23.00;99.90;;;;;;5155266;27;20042;-64
2023/07/10 11:47:05;;;;;;;1999.90;999.90;;;23.00;99.90;;;;;;5155512;27;20129;-64
2023/07/10 11:49:46;;;;;;;1999.90;999.90;;;23.10;99.90;;;;;;5155674;27;20045;-64
2023/07/10 11:52:15;;;;;;;1999.90;999.90;;;23.20;99.90;;;;;;5155142;27;20039;-63
2023/07/10 11:54:42;;;;;;;1999.90;999.90;;;23.20;99.90;;;;;;5155125;27;20050;-64
2023/07/10 11:57:22;;;;;;;1999.90;999.90;;;23.30;99.90;;;;;;5155110;27;20457;-63
2023/07/10 11:59:59;;;;;;;1999.90;999.90;;;23.50;99.90;;;;;;5155473;27;20053;-64
2023/07/10 12:02:36;;;;;;;1999.90;999.90;;;23.60;99.90;;;;;;5137487;27;20127;-63
2023/07/10 12:05:16;;;;;;;1999.90;999.90;;;23.70;99.90;;;;;;5156902;27;20055;-63
2023/07/10 12:07:56;;;;;;;1999.90;999.90;;;23.70;99.90;;;;;;5159381;27;20076;-64
2023/07/10 12:10:23;;;;;;;1999.90;999.90;;;23.70;99.90;;;;;;5159229;27;20100;-64
2023/07/10 12:12:50;;;;;;;1999.90;999.90;;;23.60;99.90;;;;;;5159111;27;20108;-64